sensor_id;sensor_type;location;lat;lon;timestamp;pressure;altitude;pressure_sealevel;temperature;humidity
22743;BME280;11538;48.884;8.696;2023-04-27T00:02:18;98848.41;;;8.37;89.89
22743;BME280;11538;48.884;8.696;2023-04-27T00:04:45;98845.09;;;8.45;89.37
22743;BME280;11538;48.884;8.696;2023-04-27T00:07:15;98848.88;;;8.44;90.01
22743;BME280;11538;48.884;8.696;2023-04-27T00:09:42;98846.72;;;8.46;89.23
22743;BME280;11538;48.884;8.696;2023-04-27T00:12:09;98839.72;;;8.40;89.28
22743;BME280;11538;48.884;8.696;2023-04-27T00:14:36;98832.66;;;8.44;89.71
22743;BME280;11538;48.884;8.696;2023-04-27T00:17:03;98841.31;;;8.46;89.76
22743;BME280;11538;48.884;8.696;2023-04-27T00:19:30;98840.00;;;8.38;90.78
22743;BME280;11538;48.884;8.696;2023-04-27T00:21:57;98836.78;;;8.36;90.29
22743;BME280;11538;48.884;8.696;2023-04-27T00:24:28;98836.03;;;8.30;89.95
22743;BME280;11538;48.884;8.696;2023-04-27T00:26:54;98823.56;;;8.34;89.88
22743;BME280;11538;48.884;8.696;2023-04-27T00:29:21;98824.88;;;8.37;89.88
22743;BME280;11538;48.884;8.696;2023-04-27T00:31:48;98824.88;;;8.37;88.95
22743;BME280;11538;48.884;8.696;2023-04-27T00:34:15;98815.44;;;8.34;89.51
22743;BME280;11538;48.884;8.696;2023-04-27T00:36:42;98822.50;;;8.30;90.22
22743;BME280;11538;48.884;8.696;2023-04-27T00:39:09;98811.72;;;8.30;90.09
22743;BME280;11538;48.884;8.696;2023-04-27T00:41:37;98813.94;;;8.23;90.58
22743;BME280;11538;48.884;8.696;2023-04-27T00:44:07;98813.41;;;8.21;90.55
22743;BME280;11538;48.884;8.696;2023-04-27T00:46:34;98811.44;;;8.27;90.59
22743;BME280;11538;48.884;8.696;2023-04-27T00:49:01;98813.06;;;8.28;90.09
22743;BME280;11538;48.884;8.696;2023-04-27T00:51:29;98816.09;;;8.21;90.78
22743;BME280;11538;48.884;8.696;2023-04-27T00:53:58;98811.31;;;8.13;91.91
22743;BME280;11538;48.884;8.696;2023-04-27T00:56:25;98811.31;;;8.13;92.90
22743;BME280;11538;48.884;8.696;2023-04-27T00:58:52;98817.56;;;8.08;92.80
22743;BME280;11538;48.884;8.696;2023-04-27T01:01:19;98820.28;;;8.03;93.49
22743;BME280;11538;48.884;8.696;2023-04-27T01:03:46;98821.91;;;8.04;93.60
22743;BME280;11538;48.884;8.696;2023-04-27T01:06:14;98829.25;;;7.98;93.83
22743;BME280;11538;48.884;8.696;2023-04-27T01:08:41;98834.41;;;7.95;93.45
22743;BME280;11538;48.884;8.696;2023-04-27T01:11:08;98834.94;;;7.97;93.62
22743;BME280;11538;48.884;8.696;2023-04-27T01:13:35;98831.97;;;7.98;94.06
22743;BME280;11538;48.884;8.696;2023-04-27T01:16:02;98830.84;;;8.04;93.71
22743;BME280;11538;48.884;8.696;2023-04-27T01:18:29;98820.25;;;8.08;92.71
22743;BME280;11538;48.884;8.696;2023-04-27T01:20:56;98826.78;;;8.02;92.57
22743;BME280;11538;48.884;8.696;2023-04-27T01:23:23;98825.47;;;7.94;93.12
22743;BME280;11538;48.884;8.696;2023-04-27T01:25:50;98825.47;;;7.94;93.78
22743;BME280;11538;48.884;8.696;2023-04-27T01:28:19;98827.41;;;7.88;94.70
22743;BME280;11538;48.884;8.696;2023-04-27T01:30:46;98833.13;;;7.82;95.65
22743;BME280;11538;48.884;8.696;2023-04-27T01:33:13;98830.19;;;7.78;96.24
22743;BME280;11538;48.884;8.696;2023-04-27T01:35:40;98833.44;;;7.75;96.06
22743;BME280;11538;48.884;8.696;2023-04-27T01:38:07;98828.34;;;7.68;96.67
22743;BME280;11538;48.884;8.696;2023-04-27T01:40:34;98828.63;;;7.72;96.98
22743;BME280;11538;48.884;8.696;2023-04-27T01:43:02;98828.28;;;7.79;96.61
22743;BME280;11538;48.884;8.696;2023-04-27T01:45:29;98827.53;;;7.73;96.59
22743;BME280;11538;48.884;8.696;2023-04-27T01:47:56;98824.25;;;7.76;96.02
22743;BME280;11538;48.884;8.696;2023-04-27T01:50:23;98824.34;;;7.66;95.85
22743;BME280;11538;48.884;8.696;2023-04-27T01:52:49;98830.31;;;7.57;97.23
22743;BME280;11538;48.884;8.696;2023-04-27T01:55:17;98828.72;;;7.51;98.60
22743;BME280;11538;48.884;8.696;2023-04-27T01:57:44;98833.31;;;7.51;98.71
22743;BME280;11538;48.884;8.696;2023-04-27T02:00:12;98834.69;;;7.48;98.65
22743;BME280;11538;48.884;8.696;2023-04-27T02:02:39;98834.91;;;7.52;98.65
22743;BME280;11538;48.884;8.696;2023-04-27T02:05:06;98838.72;;;7.51;98.36
22743;BME280;11538;48.884;8.696;2023-04-27T02:07:33;98838.19;;;7.49;98.39
22743;BME280;11538;48.884;8.696;2023-04-27T02:10:01;98834.91;;;7.52;98.58
22743;BME280;11538;48.884;8.696;2023-04-27T02:12:27;98834.66;;;7.53;99.08
22743;BME280;11538;48.884;8.696;2023-04-27T02:14:54;98843.81;;;7.57;99.27
22743;BME280;11538;48.884;8.696;2023-04-27T02:17:21;98842.72;;;7.58;99.34
22743;BME280;11538;48.884;8.696;2023-04-27T02:19:48;98839.28;;;7.42;100.00
22743;BME280;11538;48.884;8.696;2023-04-27T02:22:15;98846.63;;;7.31;100.00
22743;BME280;11538;48.884;8.696;2023-04-27T02:24:43;98842.81;;;7.43;100.00
22743;BME280;11538;48.884;8.696;2023-04-27T02:27:09;98840.88;;;7.49;99.31
22743;BME280;11538;48.884;8.696;2023-04-27T02:29:37;98838.19;;;7.43;99.19
22743;BME280;11538;48.884;8.696;2023-04-27T02:32:05;98844.44;;;7.39;99.75
22743;BME280;11538;48.884;8.696;2023-04-27T02:34:32;98837.16;;;7.39;99.07
22743;BME280;11538;48.884;8.696;2023-04-27T02:36:59;98847.88;;;7.50;98.48
22743;BME280;11538;48.884;8.696;2023-04-27T02:39:27;98844.38;;;7.54;97.80
22743;BME280;11538;48.884;8.696;2023-04-27T02:41:53;98848.44;;;7.46;98.24
22743;BME280;11538;48.884;8.696;2023-04-27T02:44:20;98850.91;;;7.43;98.79
22743;BME280;11538;48.884;8.696;2023-04-27T02:46:48;98847.94;;;7.39;99.29
22743;BME280;11538;48.884;8.696;2023-04-27T02:49:16;98843.59;;;7.43;99.38
22743;BME280;11538;48.884;8.696;2023-04-27T02:51:42;98844.69;;;7.42;99.18
22743;BME280;11538;48.884;8.696;2023-04-27T02:54:09;98854.97;;;7.35;99.91
22743;BME280;11538;48.884;8.696;2023-04-27T02:56:37;98848.75;;;7.40;99.77
22743;BME280;11538;48.884;8.696;2023-04-27T02:59:03;98847.13;;;7.44;99.10
22743;BME280;11538;48.884;8.696;2023-04-27T03:01:32;98848.97;;;7.49;98.42
22743;BME280;11538;48.884;8.696;2023-04-27T03:03:59;98844.38;;;7.54;96.87
22743;BME280;11538;48.884;8.696;2023-04-27T03:06:26;98841.66;;;7.54;97.20
22743;BME280;11538;48.884;8.696;2023-04-27T03:08:53;98849.50;;;7.51;97.55
22743;BME280;11538;48.884;8.696;2023-04-27T03:11:20;98843.53;;;7.59;97.17
22743;BME280;11538;48.884;8.696;2023-04-27T03:13:47;98850.28;;;7.61;95.92
22743;BME280;11538;48.884;8.696;2023-04-27T03:16:13;98850.78;;;7.64;96.11
22743;BME280;11538;48.884;8.696;2023-04-27T03:18:40;98844.56;;;7.63;96.54
22743;BME280;11538;48.884;8.696;2023-04-27T03:21:11;98845.97;;;7.60;96.25
22743;BME280;11538;48.884;8.696;2023-04-27T03:23:38;98847.28;;;7.63;96.52
22743;BME280;11538;48.884;8.696;2023-04-27T03:26:10;98849.75;;;7.59;96.57
22743;BME280;11538;48.884;8.696;2023-04-27T03:28:39;98842.47;;;7.55;98.00
22743;BME280;11538;48.884;8.696;2023-04-27T03:31:12;98849.50;;;7.51;99.01
22743;BME280;11538;48.884;8.696;2023-04-27T03:33:40;98850.06;;;7.47;100.00
22743;BME280;11538;48.884;8.696;2023-04-27T03:36:08;98851.13;;;7.52;100.00
22743;BME280;11538;48.884;8.696;2023-04-27T03:38:37;98858.41;;;7.56;99.95
22743;BME280;11538;48.884;8.696;2023-04-27T03:41:04;98852.72;;;7.53;99.12
22743;BME280;11538;48.884;8.696;2023-04-27T03:43:32;98848.75;;;7.45;99.02
22743;BME280;11538;48.884;8.696;2023-04-27T03:45:59;98854.41;;;7.43;99.65
22743;BME280;11538;48.884;8.696;2023-04-27T03:48:26;98851.41;;;7.50;99.90
22743;BME280;11538;48.884;8.696;2023-04-27T03:50:53;98858.44;;;7.46;100.00
22743;BME280;11538;48.884;8.696;2023-04-27T03:53:20;98854.94;;;7.40;100.00
22743;BME280;11538;48.884;8.696;2023-04-27T03:55:46;98845.22;;;7.44;99.74
22743;BME280;11538;48.884;8.696;2023-04-27T03:58:13;98849.25;;;7.47;99.41
22743;BME280;11538;48.884;8.696;2023-04-27T04:00:40;98840.38;;;7.41;100.00
22743;BME280;11538;48.884;8.696;2023-04-27T04:03:07;98850.09;;;7.42;100.00
22743;BME280;11538;48.884;8.696;2023-04-27T04:05:34;98851.66;;;7.49;100.00
22743;BME280;11538;48.884;8.696;2023-04-27T04:08:02;98855.22;;;7.44;100.00
22743;BME280;11538;48.884;8.696;2023-04-27T04:10:29;98856.56;;;7.41;100.00
22743;BME280;11538;48.884;8.696;2023-04-27T04:12:56;98860.34;;;7.40;100.00
22743;BME280;11538;48.884;8.696;2023-04-27T04:15:23;98862.78;;;7.42;100.00
22743;BME280;11538;48.884;8.696;2023-04-27T04:17:50;98862.78;;;7.42;100.00
22743;BME280;11538;48.884;8.696;2023-04-27T04:20:17;98860.31;;;7.45;100.00
22743;BME280;11538;48.884;8.696;2023-04-27T04:22:44;98868.41;;;7.45;100.00
22743;BME280;11538;48.884;8.696;2023-04-27T04:25:12;98865.47;;;7.42;100.00
22743;BME280;11538;48.884;8.696;2023-04-27T04:27:40;98858.19;;;7.42;100.00
22743;BME280;11538;48.884;8.696;2023-04-27T04:30:07;98863.56;;;7.42;100.00
22743;BME280;11538;48.884;8.696;2023-04-27T04:32:34;98864.13;;;7.39;100.00
22743;BME280;11538;48.884;8.696;2023-04-27T04:35:04;98864.69;;;7.36;100.00
22743;BME280;11538;48.884;8.696;2023-04-27T04:37:33;98860.91;;;7.32;100.00
22743;BME280;11538;48.884;8.696;2023-04-27T04:40:04;98863.34;;;7.39;100.00
22743;BME280;11538;48.884;8.696;2023-04-27T04:42:36;98864.09;;;7.44;100.00
22743;BME280;11538;48.884;8.696;2023-04-27T04:45:04;98864.38;;;7.48;100.00
22743;BME280;11538;48.884;8.696;2023-04-27T04:47:31;98862.78;;;7.42;100.00
22743;BME280;11538;48.884;8.696;2023-04-27T04:50:00;98865.19;;;7.43;100.00
22743;BME280;11538;48.884;8.696;2023-04-27T04:52:27;98859.03;;;7.38;100.00
22743;BME280;11538;48.884;8.696;2023-04-27T04:54:54;98863.34;;;7.34;100.00
22743;BME280;11538;48.884;8.696;2023-04-27T04:57:21;98869.25;;;7.41;100.00
22743;BME280;11538;48.884;8.696;2023-04-27T04:59:48;98861.16;;;7.46;100.00
22743;BME280;11538;48.884;8.696;2023-04-27T05:02:15;98861.38;;;7.50;100.00
22743;BME280;11538;48.884;8.696;2023-04-27T05:04:42;98861.94;;;7.46;100.00
22743;BME280;11538;48.884;8.696;2023-04-27T05:07:09;98861.41;;;7.44;100.00
22743;BME280;11538;48.884;8.696;2023-04-27T05:09:40;98860.03;;;7.52;100.00
22743;BME280;11538;48.884;8.696;2023-04-27T05:12:07;98869.16;;;7.61;100.00
22743;BME280;11538;48.884;8.696;2023-04-27T05:14:34;98869.97;;;7.62;100.00
22743;BME280;11538;48.884;8.696;2023-04-27T05:17:01;98871.53;;;7.68;99.93
22743;BME280;11538;48.884;8.696;2023-04-27T05:19:29;98871.81;;;7.72;98.91
22743;BME280;11538;48.884;8.696;2023-04-27T05:22:00;98873.16;;;7.69;99.56
22743;BME280;11538;48.884;8.696;2023-04-27T05:24:26;98879.66;;;7.68;99.88
22743;BME280;11538;48.884;8.696;2023-04-27T05:26:53;98880.19;;;7.65;100.00
22743;BME280;11538;48.884;8.696;2023-04-27T05:29:21;98879.94;;;7.67;100.00
22743;BME280;11538;48.884;8.696;2023-04-27T05:31:48;98883.41;;;7.72;100.00
22743;BME280;11538;48.884;8.696;2023-04-27T05:34:15;98890.38;;;7.79;100.00
22743;BME280;11538;48.884;8.696;2023-04-27T05:36:42;98888.66;;;8.03;100.00
22743;BME280;11538;48.884;8.696;2023-04-27T05:39:09;98884.91;;;8.34;98.55
22743;BME280;11538;48.884;8.696;2023-04-27T05:41:36;98896.25;;;8.36;97.15
22743;BME280;11538;48.884;8.696;2023-04-27T05:44:03;98894.59;;;8.40;96.46
22743;BME280;11538;48.884;8.696;2023-04-27T05:46:30;98899.44;;;8.43;95.20
22743;BME280;11538;48.884;8.696;2023-04-27T05:48:58;98895.38;;;8.46;94.15
22743;BME280;11538;48.884;8.696;2023-04-27T05:51:25;98896.44;;;8.45;94.41
22743;BME280;11538;48.884;8.696;2023-04-27T05:53:54;98907.50;;;8.48;94.11
22743;BME280;11538;48.884;8.696;2023-04-27T05:56:21;98904.03;;;8.43;93.74
22743;BME280;11538;48.884;8.696;2023-04-27T05:58:49;98909.16;;;8.44;94.19
22743;BME280;11538;48.884;8.696;2023-04-27T06:01:16;98905.34;;;8.51;95.03
22743;BME280;11538;48.884;8.696;2023-04-27T06:03:43;98903.72;;;8.49;93.49
22743;BME280;11538;48.884;8.696;2023-04-27T06:06:10;98909.66;;;8.52;93.92
22743;BME280;11538;48.884;8.696;2023-04-27T06:08:38;98914.28;;;8.51;93.45
22743;BME280;11538;48.884;8.696;2023-04-27T06:11:05;98908.34;;;8.49;93.77
22743;BME280;11538;48.884;8.696;2023-04-27T06:13:32;98915.59;;;8.48;93.80
22743;BME280;11538;48.884;8.696;2023-04-27T06:16:00;98919.66;;;8.56;93.14
22743;BME280;11538;48.884;8.696;2023-04-27T06:18:27;98923.66;;;8.64;92.72
22743;BME280;11538;48.884;8.696;2023-04-27T06:21:01;98925.97;;;8.76;91.54
22743;BME280;11538;48.884;8.696;2023-04-27T06:23:28;98924.78;;;8.87;91.72
22743;BME280;11538;48.884;8.696;2023-04-27T06:25:55;98926.81;;;9.01;91.02
22743;BME280;11538;48.884;8.696;2023-04-27T06:28:22;98924.88;;;9.06;90.29
22743;BME280;11538;48.884;8.696;2023-04-27T06:30:48;98932.66;;;9.13;89.79
22743;BME280;11538;48.884;8.696;2023-04-27T06:33:15;98928.84;;;9.14;87.06
22743;BME280;11538;48.884;8.696;2023-04-27T06:35:43;98922.13;;;9.12;86.71
22743;BME280;11538;48.884;8.696;2023-04-27T06:38:13;98925.63;;;9.12;87.29
22743;BME280;11538;48.884;8.696;2023-04-27T06:40:40;98927.53;;;9.12;86.43
22743;BME280;11538;48.884;8.696;2023-04-27T06:43:07;98933.16;;;9.15;85.39
22743;BME280;11538;48.884;8.696;2023-04-27T06:45:37;98931.44;;;9.25;83.83
22743;BME280;11538;48.884;8.696;2023-04-27T06:48:06;98930.78;;;9.38;84.14
22743;BME280;11538;48.884;8.696;2023-04-27T06:50:33;98926.84;;;9.49;84.67
22743;BME280;11538;48.884;8.696;2023-04-27T06:53:00;98926.28;;;9.53;84.70
22743;BME280;11538;48.884;8.696;2023-04-27T06:55:27;98924.81;;;9.60;84.71
22743;BME280;11538;48.884;8.696;2023-04-27T06:57:54;98930.41;;;9.69;84.89
22743;BME280;11538;48.884;8.696;2023-04-27T07:00:21;98925.44;;;9.76;84.89
22743;BME280;11538;48.884;8.696;2023-04-27T07:02:48;98936.16;;;9.87;85.13
22743;BME280;11538;48.884;8.696;2023-04-27T07:05:15;98931.84;;;10.05;83.97
22743;BME280;11538;48.884;8.696;2023-04-27T07:07:43;98937.06;;;10.20;82.88
22743;BME280;11538;48.884;8.696;2023-04-27T07:10:11;98933.44;;;10.25;81.73
22743;BME280;11538;48.884;8.696;2023-04-27T07:12:39;98938.19;;;10.33;80.93
22743;BME280;11538;48.884;8.696;2023-04-27T07:15:07;98938.91;;;10.44;80.47
22743;BME280;11538;48.884;8.696;2023-04-27T07:17:34;98939.25;;;10.57;79.36
22743;BME280;11538;48.884;8.696;2023-04-27T07:20:02;98943.31;;;10.73;79.30
22743;BME280;11538;48.884;8.696;2023-04-27T07:22:32;98932.00;;;10.85;77.83
22743;BME280;11538;48.884;8.696;2023-04-27T07:24:59;98929.63;;;10.97;76.56
22743;BME280;11538;48.884;8.696;2023-04-27T07:27:26;98927.22;;;11.10;74.82
22743;BME280;11538;48.884;8.696;2023-04-27T07:29:53;98927.63;;;11.17;73.51
22743;BME280;11538;48.884;8.696;2023-04-27T07:32:20;98932.38;;;11.25;73.92
22743;BME280;11538;48.884;8.696;2023-04-27T07:34:49;98936.72;;;11.40;72.11
22743;BME280;11538;48.884;8.696;2023-04-27T07:37:21;98928.56;;;11.54;70.87
22743;BME280;11538;48.884;8.696;2023-04-27T07:39:49;98923.22;;;11.63;69.82
22743;BME280;11538;48.884;8.696;2023-04-27T07:42:18;98928.13;;;11.75;70.17
22743;BME280;11538;48.884;8.696;2023-04-27T07:44:45;98928.22;;;11.84;68.06
22743;BME280;11538;48.884;8.696;2023-04-27T07:47:12;98919.75;;;11.99;67.99
22743;BME280;11538;48.884;8.696;2023-04-27T07:49:40;98919.44;;;12.15;66.70
22743;BME280;11538;48.884;8.696;2023-04-27T07:52:06;98911.50;;;12.41;67.14
22743;BME280;11538;48.884;8.696;2023-04-27T07:54:34;98912.47;;;12.68;66.46
22743;BME280;11538;48.884;8.696;2023-04-27T07:57:07;98916.72;;;12.83;64.38
22743;BME280;11538;48.884;8.696;2023-04-27T07:59:35;98921.09;;;12.93;61.95
22743;BME280;11538;48.884;8.696;2023-04-27T08:02:02;98914.63;;;13.12;60.96
22743;BME280;11538;48.884;8.696;2023-04-27T08:04:45;98911.94;;;13.21;60.03
22743;BME280;11538;48.884;8.696;2023-04-27T08:07:15;98914.88;;;13.33;58.36
22743;BME280;11538;48.884;8.696;2023-04-27T08:09:49;98910.19;;;13.56;58.58
22743;BME280;11538;48.884;8.696;2023-04-27T08:12:16;98905.09;;;13.81;58.13
22743;BME280;11538;48.884;8.696;2023-04-27T08:14:43;98913.78;;;14.01;55.91
22743;BME280;11538;48.884;8.696;2023-04-27T08:17:10;98912.19;;;14.17;54.04
22743;BME280;11538;48.884;8.696;2023-04-27T08:19:40;98914.91;;;14.35;52.94
22743;BME280;11538;48.884;8.696;2023-04-27T08:22:07;98909.91;;;14.63;52.68
22743;BME280;11538;48.884;8.696;2023-04-27T08:24:35;98898.19;;;14.81;53.11
22743;BME280;11538;48.884;8.696;2023-04-27T08:27:04;98901.53;;;14.86;50.96
22743;BME280;11538;48.884;8.696;2023-04-27T08:29:32;98904.25;;;14.95;52.21
22743;BME280;11538;48.884;8.696;2023-04-27T08:32:01;98896.38;;;15.02;50.43
22743;BME280;11538;48.884;8.696;2023-04-27T08:34:29;98906.09;;;15.21;50.86
22743;BME280;11538;48.884;8.696;2023-04-27T08:37:02;98904.50;;;15.50;51.84
22743;BME280;11538;48.884;8.696;2023-04-27T08:39:30;98901.16;;;15.74;50.43
22743;BME280;11538;48.884;8.696;2023-04-27T08:41:57;98895.63;;;15.92;49.71
22743;BME280;11538;48.884;8.696;2023-04-27T08:44:24;98896.09;;;15.85;49.07
22743;BME280;11538;48.884;8.696;2023-04-27T08:46:51;98891.41;;;15.64;44.79
22743;BME280;11538;48.884;8.696;2023-04-27T08:49:19;98895.44;;;15.67;47.82
22743;BME280;11538;48.884;8.696;2023-04-27T08:51:46;98896.28;;;15.89;49.46
22743;BME280;11538;48.884;8.696;2023-04-27T08:54:13;98896.22;;;15.98;44.29
22743;BME280;11538;48.884;8.696;2023-04-27T08:56:40;98888.13;;;16.01;48.45
22743;BME280;11538;48.884;8.696;2023-04-27T08:59:14;98894.34;;;16.11;45.93
22743;BME280;11538;48.884;8.696;2023-04-27T09:01:46;98885.66;;;16.08;46.15
22743;BME280;11538;48.884;8.696;2023-04-27T09:04:15;98885.72;;;16.21;47.45
22743;BME280;11538;48.884;8.696;2023-04-27T09:06:44;98887.31;;;16.43;50.17
22743;BME280;11538;48.884;8.696;2023-04-27T09:09:21;98898.91;;;16.61;46.47
22743;BME280;11538;48.884;8.696;2023-04-27T09:11:49;98898.50;;;16.72;46.95
22743;BME280;11538;48.884;8.696;2023-04-27T09:14:20;98897.59;;;16.80;48.47
22743;BME280;11538;48.884;8.696;2023-04-27T09:16:55;98892.66;;;16.73;47.74
22743;BME280;11538;48.884;8.696;2023-04-27T09:19:29;98899.28;;;17.06;49.27
22743;BME280;11538;48.884;8.696;2023-04-27T09:22:10;98897.34;;;17.44;46.74
22743;BME280;11538;48.884;8.696;2023-04-27T09:24:37;98894.69;;;17.60;46.94
22743;BME280;11538;48.884;8.696;2023-04-27T09:27:06;98903.97;;;17.67;48.43
22743;BME280;11538;48.884;8.696;2023-04-27T09:29:37;98896.88;;;17.79;47.79
22743;BME280;11538;48.884;8.696;2023-04-27T09:32:18;98903.03;;;17.88;45.45
22743;BME280;11538;48.884;8.696;2023-04-27T09:34:46;98902.25;;;18.00;47.87
22743;BME280;11538;48.884;8.696;2023-04-27T09:37:15;98899.31;;;18.21;48.00
22743;BME280;11538;48.884;8.696;2023-04-27T09:39:43;98894.66;;;18.38;49.25
22743;BME280;11538;48.884;8.696;2023-04-27T09:42:11;98898.72;;;18.28;44.62
22743;BME280;11538;48.884;8.696;2023-04-27T09:44:38;98895.22;;;18.44;45.63
22743;BME280;11538;48.884;8.696;2023-04-27T09:47:06;98892.75;;;18.54;46.41
22743;BME280;11538;48.884;8.696;2023-04-27T09:49:34;98888.97;;;18.59;43.90
22743;BME280;11538;48.884;8.696;2023-04-27T09:52:01;98884.47;;;18.67;44.85
22743;BME280;11538;48.884;8.696;2023-04-27T09:54:32;98888.19;;;18.75;46.52
22743;BME280;11538;48.884;8.696;2023-04-27T09:57:26;98884.47;;;19.11;45.91
22743;BME280;11538;48.884;8.696;2023-04-27T10:00:11;98883.94;;;19.38;44.38
22743;BME280;11538;48.884;8.696;2023-04-27T10:03:04;98887.41;;;19.70;47.23
22743;BME280;11538;48.884;8.696;2023-04-27T10:06:06;98891.25;;;20.01;44.41
22743;BME280;11538;48.884;8.696;2023-04-27T10:08:41;98893.00;;;20.10;43.69
22743;BME280;11538;48.884;8.696;2023-04-27T10:11:16;98889.09;;;20.11;43.69
22743;BME280;11538;48.884;8.696;2023-04-27T10:13:53;98891.56;;;20.36;46.64
22743;BME280;11538;48.884;8.696;2023-04-27T10:16:21;98892.56;;;20.08;38.88
22743;BME280;11538;48.884;8.696;2023-04-27T10:18:54;98896.88;;;19.89;45.04
22743;BME280;11538;48.884;8.696;2023-04-27T10:21:22;98891.59;;;19.64;39.95
22743;BME280;11538;48.884;8.696;2023-04-27T10:23:50;98889.69;;;19.33;38.73
22743;BME280;11538;48.884;8.696;2023-04-27T10:26:26;98894.91;;;19.22;39.61
22743;BME280;11538;48.884;8.696;2023-04-27T10:29:05;98895.19;;;19.84;42.92
22743;BME280;11538;48.884;8.696;2023-04-27T10:31:43;98884.38;;;20.31;42.13
22743;BME280;11538;48.884;8.696;2023-04-27T10:34:16;98886.19;;;20.23;39.82
22743;BME280;11538;48.884;8.696;2023-04-27T10:36:47;98883.88;;;20.06;36.54
22743;BME280;11538;48.884;8.696;2023-04-27T10:39:19;98878.56;;;19.97;38.05
22743;BME280;11538;48.884;8.696;2023-04-27T10:41:58;98883.47;;;19.87;40.66
22743;BME280;11538;48.884;8.696;2023-04-27T10:44:31;98884.16;;;20.00;41.25
22743;BME280;11538;48.884;8.696;2023-04-27T10:47:10;98891.91;;;19.95;39.34
22743;BME280;11538;48.884;8.696;2023-04-27T10:49:38;98886.97;;;20.04;37.57
22743;BME280;11538;48.884;8.696;2023-04-27T10:52:05;98877.13;;;20.23;38.09
22743;BME280;11538;48.884;8.696;2023-04-27T10:54:33;98879.88;;;20.23;38.25
22743;BME280;11538;48.884;8.696;2023-04-27T10:57:09;98875.47;;;20.38;39.78
22743;BME280;11538;48.884;8.696;2023-04-27T10:59:52;98872.28;;;20.16;38.21
22743;BME280;11538;48.884;8.696;2023-04-27T11:02:28;98875.38;;;19.95;38.51
22743;BME280;11538;48.884;8.696;2023-04-27T11:04:58;98875.63;;;20.06;39.63
22743;BME280;11538;48.884;8.696;2023-04-27T11:07:27;98876.19;;;20.15;37.41
22743;BME280;11538;48.884;8.696;2023-04-27T11:09:54;98865.59;;;20.56;39.79
22743;BME280;11538;48.884;8.696;2023-04-27T11:12:21;98855.44;;;21.07;39.69
22743;BME280;11538;48.884;8.696;2023-04-27T11:14:49;98856.50;;;21.49;41.23
22743;BME280;11538;48.884;8.696;2023-04-27T11:17:30;98862.66;;;21.93;37.24
22743;BME280;11538;48.884;8.696;2023-04-27T11:19:57;98858.66;;;22.20;42.07
22743;BME280;11538;48.884;8.696;2023-04-27T11:22:24;98857.50;;;22.22;36.00
22743;BME280;11538;48.884;8.696;2023-04-27T11:24:52;98864.19;;;22.20;39.32
22743;BME280;11538;48.884;8.696;2023-04-27T11:27:19;98868.06;;;21.85;35.92
22743;BME280;11538;48.884;8.696;2023-04-27T11:29:48;98876.94;;;22.32;34.08
22743;BME280;11538;48.884;8.696;2023-04-27T11:32:22;98867.84;;;21.98;33.73
22743;BME280;11538;48.884;8.696;2023-04-27T11:34:51;98863.88;;;21.41;34.71
22743;BME280;11538;48.884;8.696;2023-04-27T11:37:22;98862.19;;;21.60;35.00
22743;BME280;11538;48.884;8.696;2023-04-27T11:39:51;98862.03;;;22.06;38.40
22743;BME280;11538;48.884;8.696;2023-04-27T11:42:27;98855.34;;;22.08;34.08
22743;BME280;11538;48.884;8.696;2023-04-27T11:45:05;98852.13;;;22.02;33.64
22743;BME280;11538;48.884;8.696;2023-04-27T11:47:34;98844.81;;;21.32;34.89
22743;BME280;11538;48.884;8.696;2023-04-27T11:50:07;98836.75;;;21.20;35.24
22743;BME280;11538;48.884;8.696;2023-04-27T11:52:36;98843.88;;;21.48;35.77
22743;BME280;11538;48.884;8.696;2023-04-27T11:55:05;98836.66;;;21.97;33.89
22743;BME280;11538;48.884;8.696;2023-04-27T11:57:41;98840.53;;;22.23;33.50
22743;BME280;11538;48.884;8.696;2023-04-27T12:00:09;98838.59;;;22.27;34.12
22743;BME280;11538;48.884;8.696;2023-04-27T12:02:37;98839.25;;;22.47;35.58
22743;BME280;11538;48.884;8.696;2023-04-27T12:05:05;98830.44;;;22.76;34.33
22743;BME280;11538;48.884;8.696;2023-04-27T12:07:33;98826.16;;;22.44;34.97
22743;BME280;11538;48.884;8.696;2023-04-27T12:10:00;98825.28;;;21.72;36.75
22743;BME280;11538;48.884;8.696;2023-04-27T12:12:27;98830.69;;;21.91;35.73
22743;BME280;11538;48.884;8.696;2023-04-27T12:14:54;98825.66;;;22.35;36.70
22743;BME280;11538;48.884;8.696;2023-04-27T12:17:21;98833.88;;;22.28;34.73
22743;BME280;11538;48.884;8.696;2023-04-27T12:19:49;98821.88;;;21.25;35.73
22743;BME280;11538;48.884;8.696;2023-04-27T12:22:16;98824.13;;;21.19;36.37
22743;BME280;11538;48.884;8.696;2023-04-27T12:24:42;98822.09;;;20.89;36.38
22743;BME280;11538;48.884;8.696;2023-04-27T12:27:10;98812.50;;;20.16;37.65
22743;BME280;11538;48.884;8.696;2023-04-27T12:29:40;98829.31;;;19.92;39.21
22743;BME280;11538;48.884;8.696;2023-04-27T12:32:07;98824.19;;;19.90;39.34
22743;BME280;11538;48.884;8.696;2023-04-27T12:34:34;98816.53;;;19.83;39.96
22743;BME280;11538;48.884;8.696;2023-04-27T12:37:02;98818.13;;;20.24;39.52
22743;BME280;11538;48.884;8.696;2023-04-27T12:39:29;98810.69;;;20.24;39.60
22743;BME280;11538;48.884;8.696;2023-04-27T12:41:59;98803.31;;;20.75;38.02
22743;BME280;11538;48.884;8.696;2023-04-27T12:44:26;98805.88;;;20.41;38.41
22743;BME280;11538;48.884;8.696;2023-04-27T12:46:53;98806.16;;;20.36;39.16
22743;BME280;11538;48.884;8.696;2023-04-27T12:49:20;98806.81;;;20.29;38.15
22743;BME280;11538;48.884;8.696;2023-04-27T12:51:47;98806.94;;;19.93;38.45
22743;BME280;11538;48.884;8.696;2023-04-27T12:54:17;98808.75;;;19.69;38.95
22743;BME280;11538;48.884;8.696;2023-04-27T12:56:45;98812.88;;;19.60;40.05
22743;BME280;11538;48.884;8.696;2023-04-27T12:59:12;98813.06;;;19.51;39.86
22743;BME280;11538;48.884;8.696;2023-04-27T13:01:39;98809.38;;;19.43;39.54
22743;BME280;11538;48.884;8.696;2023-04-27T13:04:06;98813.66;;;19.60;39.29
22743;BME280;11538;48.884;8.696;2023-04-27T13:06:35;98803.44;;;20.59;38.12
22743;BME280;11538;48.884;8.696;2023-04-27T13:09:03;98805.78;;;21.30;36.56
22743;BME280;11538;48.884;8.696;2023-04-27T13:11:32;98804.91;;;22.14;35.04
22743;BME280;11538;48.884;8.696;2023-04-27T13:13:59;98803.13;;;21.65;35.08